createdAt,value
2018-12-27T00:01:13.821Z,38.21
2018-12-27T00:03:41.487Z,38.22
2018-12-27T00:06:09.458Z,38.29
2018-12-27T00:08:36.961Z,38.13
2018-12-27T00:11:04.635Z,37.99
2018-12-27T00:13:32.387Z,37.98
2018-12-27T00:16:00.234Z,38.47
2018-12-27T00:18:28.477Z,38.13
2018-12-27T00:20:56.039Z,38.33
2018-12-27T00:23:23.484Z,38.25
2018-12-27T00:25:50.744Z,38.44
2018-12-27T00:28:17.596Z,38.26
2018-12-27T00:30:45.464Z,37.97
2018-12-27T00:33:13.437Z,38.10
2018-12-27T00:35:42.334Z,37.95
2018-12-27T00:38:09.819Z,38.24
2018-12-27T00:40:38.243Z,38.25
2018-12-27T00:43:06.443Z,38.15
2018-12-27T00:45:33.991Z,38.16
2018-12-27T00:48:01.628Z,38.19
2018-12-27T00:50:28.860Z,37.99
2018-12-27T00:52:56.833Z,37.87
2018-12-27T00:55:24.384Z,38.17
2018-12-27T00:57:52.386Z,38.37
2018-12-27T01:00:19.988Z,38.49
2018-12-27T01:02:47.518Z,38.51
2018-12-27T01:05:15.783Z,38.55
2018-12-27T01:07:42.738Z,38.05
2018-12-27T01:12:03.430Z,38.10
2018-12-27T01:14:31.380Z,38.12
2018-12-27T01:16:58.881Z,38.10
2018-12-27T01:19:26.883Z,38.11
2018-12-27T01:21:54.796Z,38.11
2018-12-27T01:24:22.344Z,38.09
2018-12-27T01:26:49.967Z,37.88
2018-12-27T01:29:17.254Z,38.32
2018-12-27T01:31:50.575Z,37.21
2018-12-27T01:34:14.500Z,37.02
2018-12-27T01:36:42.438Z,36.85
2018-12-27T01:39:11.439Z,37.17
2018-12-27T01:41:39.910Z,36.99
2018-12-27T01:44:07.328Z,37.03
2018-12-27T01:46:34.743Z,37.13
2018-12-27T01:49:01.961Z,37.36
2018-12-27T01:51:30.431Z,37.40
2018-12-27T01:53:57.605Z,37.62
2018-12-27T01:56:24.819Z,37.58
2018-12-27T01:58:52.244Z,37.49
2018-12-27T02:01:19.771Z,37.43
2018-12-27T02:03:46.876Z,37.29
2018-12-27T02:06:14.470Z,37.23
2018-12-27T02:08:43.841Z,37.23
2018-12-27T02:11:12.437Z,36.85
2018-12-27T02:13:42.378Z,36.95
2018-12-27T02:16:10.371Z,37.48
2018-12-27T02:18:39.673Z,37.55
2018-12-27T02:21:07.784Z,37.72
2018-12-27T02:23:36.695Z,37.81
2018-12-27T02:26:05.769Z,37.94
2018-12-27T02:28:33.827Z,38.13
2018-12-27T02:31:03.023Z,38.21
2018-12-27T02:33:35.347Z,38.19
2018-12-27T02:36:02.645Z,38.21
2018-12-27T02:38:32.251Z,38.21
2018-12-27T02:44:02.885Z,37.79
2018-12-27T02:46:31.521Z,37.82
2018-12-27T02:48:58.992Z,38.14
2018-12-27T02:51:26.337Z,38.10
2018-12-27T02:53:53.807Z,38.22
2018-12-27T02:56:21.836Z,38.14
2018-12-27T02:58:50.374Z,38.24
2018-12-27T03:01:19.349Z,38.25
2018-12-27T03:03:46.639Z,38.15
2018-12-27T03:06:15.372Z,38.38
2018-12-27T03:08:42.621Z,38.53
2018-12-27T03:11:09.995Z,38.19
2018-12-27T03:13:38.037Z,38.18
2018-12-27T03:16:05.715Z,37.81
2018-12-27T03:18:33.438Z,37.70
2018-12-27T03:21:01.320Z,37.57
2018-12-27T03:23:28.519Z,37.30
2018-12-27T03:25:56.832Z,37.11
2018-12-27T03:28:24.444Z,37.38
2018-12-27T03:30:52.049Z,37.66
2018-12-27T03:33:20.527Z,38.05
2018-12-27T03:35:48.487Z,37.91
2018-12-27T03:38:16.260Z,38.08
2018-12-27T03:40:43.784Z,37.94
2018-12-27T03:43:10.913Z,37.94
2018-12-27T03:45:39.006Z,37.82
2018-12-27T03:49:43.464Z,37.93
2018-12-27T03:52:11.029Z,37.99
2018-12-27T03:54:38.991Z,38.03
2018-12-27T03:57:06.801Z,38.06
2018-12-27T03:59:34.301Z,37.95
2018-12-27T04:02:01.975Z,38.09
2018-12-27T04:04:29.425Z,38.02
2018-12-27T04:06:56.811Z,38.01
2018-12-27T04:09:27.813Z,38.17
2018-12-27T04:11:56.123Z,37.96
2018-12-27T04:14:23.755Z,37.68
2018-12-27T04:16:51.527Z,37.75
2018-12-27T04:19:19.501Z,37.35
2018-12-27T04:21:47.617Z,37.58
2018-12-27T04:24:17.507Z,37.08
2018-12-27T04:26:45.035Z,37.41
2018-12-27T04:29:12.904Z,37.83
2018-12-27T04:31:40.870Z,37.75
2018-12-27T04:34:09.700Z,37.86
2018-12-27T04:36:37.946Z,37.86
2018-12-27T04:39:06.843Z,38.12
2018-12-27T04:41:35.336Z,37.98
2018-12-27T04:44:02.893Z,38.10
2018-12-27T04:46:30.336Z,38.18
2018-12-27T04:48:58.054Z,38.02
2018-12-27T04:51:26.070Z,38.02
2018-12-27T04:53:53.767Z,37.81
2018-12-27T04:56:20.735Z,37.75
2018-12-27T04:58:47.624Z,37.50
2018-12-27T05:01:15.352Z,37.39
2018-12-27T05:03:43.018Z,37.18
2018-12-27T05:06:10.469Z,36.93
2018-12-27T05:08:38.012Z,37.36
2018-12-27T05:11:05.975Z,37.47
2018-12-27T05:13:33.731Z,37.75
2018-12-27T05:16:01.899Z,37.76
2018-12-27T05:18:29.630Z,37.84
2018-12-27T05:20:57.428Z,37.84
2018-12-27T05:23:25.623Z,37.65
2018-12-27T05:25:53.819Z,37.68
2018-12-27T05:28:21.250Z,37.68
2018-12-27T05:30:48.504Z,37.90
2018-12-27T05:33:16.388Z,38.03
2018-12-27T05:35:43.992Z,38.08
2018-12-27T05:38:11.800Z,37.78
2018-12-27T05:40:39.250Z,37.58
2018-12-27T05:43:07.374Z,37.43
2018-12-27T05:45:34.843Z,37.48
2018-12-27T05:48:02.786Z,37.16
2018-12-27T05:50:29.723Z,37.02
2018-12-27T05:52:57.349Z,36.90
2018-12-27T05:55:24.620Z,37.20
2018-12-27T05:57:52.011Z,37.52
2018-12-27T06:00:19.937Z,37.43
2018-12-27T06:02:47.718Z,37.46
2018-12-27T06:05:14.956Z,37.59
2018-12-27T06:07:42.441Z,37.76
2018-12-27T06:10:09.799Z,37.59
2018-12-27T06:12:37.842Z,37.71
2018-12-27T06:15:05.709Z,37.77
2018-12-27T06:17:33.695Z,37.77
2018-12-27T06:20:00.723Z,37.76
2018-12-27T06:22:28.485Z,37.63
2018-12-27T06:24:56.446Z,37.55
2018-12-27T06:27:24.173Z,37.43
2018-12-27T06:29:51.435Z,37.10
2018-12-27T06:32:19.844Z,37.03
2018-12-27T06:34:47.835Z,37.07
2018-12-27T06:37:15.499Z,36.79
2018-12-27T06:39:43.966Z,37.05
2018-12-27T06:42:11.709Z,37.26
2018-12-27T06:44:38.890Z,37.38
2018-12-27T06:47:06.282Z,37.49
2018-12-27T06:49:33.513Z,37.49
2018-12-27T06:52:01.522Z,37.48
2018-12-27T06:54:29.254Z,37.25
2018-12-27T06:56:57.256Z,37.36
2018-12-27T06:59:24.829Z,37.46
2018-12-27T07:01:52.613Z,37.47
2018-12-27T07:04:21.105Z,37.52
2018-12-27T07:06:48.508Z,37.49
2018-12-27T07:09:16.528Z,37.28
2018-12-27T07:11:43.820Z,37.19
2018-12-27T07:14:12.371Z,37.01
2018-12-27T07:16:39.625Z,36.83
2018-12-27T07:19:07.407Z,36.66
2018-12-27T07:21:35.839Z,36.70
2018-12-27T07:24:03.730Z,36.63
2018-12-27T07:27:57.056Z,37.30
2018-12-27T07:30:24.405Z,37.10
2018-12-27T07:32:52.249Z,36.82
2018-12-27T07:35:19.498Z,36.57
2018-12-27T07:37:47.099Z,36.66
2018-12-27T07:40:14.749Z,36.72
2018-12-27T07:42:41.622Z,36.60
2018-12-27T07:45:09.465Z,37.09
2018-12-27T07:47:37.255Z,37.13
2018-12-27T07:50:05.750Z,37.12
2018-12-27T07:52:32.616Z,37.23
2018-12-27T07:54:59.970Z,37.26
2018-12-27T07:57:27.415Z,37.26
2018-12-27T07:59:55.051Z,37.06
2018-12-27T08:02:22.443Z,37.14
2018-12-27T08:04:49.816Z,37.17
2018-12-27T08:07:17.086Z,37.20
2018-12-27T08:09:44.805Z,37.04
2018-12-27T08:12:12.891Z,36.86
2018-12-27T08:14:40.341Z,36.67
2018-12-27T08:17:08.252Z,36.67
2018-12-27T08:19:35.505Z,36.30
2018-12-27T08:22:03.663Z,36.43
2018-12-27T08:24:31.349Z,36.25
2018-12-27T08:26:59.252Z,35.92
2018-12-27T08:29:26.804Z,36.67
2018-12-27T08:31:55.057Z,36.59
2018-12-27T08:34:22.611Z,36.71
2018-12-27T08:36:49.895Z,36.65
2018-12-27T08:39:17.435Z,36.54
2018-12-27T08:41:44.802Z,36.34
2018-12-27T08:44:12.287Z,36.75
2018-12-27T08:46:39.616Z,36.18
2018-12-27T08:49:06.728Z,36.16
2018-12-27T08:51:34.057Z,36.75
2018-12-27T08:54:01.446Z,36.37
2018-12-27T08:56:28.797Z,36.09
2018-12-27T08:58:55.815Z,36.01
2018-12-27T09:01:23.378Z,35.78
2018-12-27T09:03:50.888Z,35.60
2018-12-27T09:06:18.251Z,35.13
2018-12-27T09:08:45.607Z,35.13
2018-12-27T09:11:13.245Z,35.50
2018-12-27T09:13:40.518Z,36.58
2018-12-27T09:16:07.793Z,35.49
2018-12-27T09:18:34.701Z,33.59
2018-12-27T09:21:01.718Z,31.84
2018-12-27T09:23:28.612Z,31.19
2018-12-27T09:25:55.883Z,32.13
2018-12-27T09:28:23.538Z,33.16
2018-12-27T09:30:50.851Z,33.16
2018-12-27T09:33:18.461Z,33.46
2018-12-27T09:35:46.245Z,33.96
2018-12-27T09:38:15.732Z,34.08
2018-12-27T09:40:42.836Z,34.11
2018-12-27T09:43:10.249Z,34.20
2018-12-27T09:45:37.492Z,34.65
2018-12-27T09:48:04.802Z,33.33
2018-12-27T09:50:32.299Z,33.23
2018-12-27T09:52:59.610Z,33.25
2018-12-27T09:55:27.247Z,33.42
2018-12-27T09:57:54.734Z,33.31
2018-12-27T10:00:21.637Z,33.28
2018-12-27T10:02:48.919Z,34.03
2018-12-27T10:05:16.244Z,34.48
2018-12-27T10:07:43.703Z,34.20
2018-12-27T10:10:10.837Z,34.44
2018-12-27T10:12:38.247Z,34.45
2018-12-27T10:15:07.767Z,34.37
2018-12-27T10:17:34.690Z,34.82
2018-12-27T10:20:01.733Z,27.91
2018-12-27T10:22:29.624Z,29.10
2018-12-27T10:24:57.488Z,29.08
2018-12-27T10:27:25.254Z,30.07
2018-12-27T10:29:53.442Z,30.39
2018-12-27T10:32:20.838Z,30.34
2018-12-27T10:34:48.241Z,30.51
2018-12-27T10:37:15.998Z,30.76
2018-12-27T10:39:43.396Z,31.34
2018-12-27T10:42:11.258Z,30.34
2018-12-27T10:44:38.826Z,32.97
2018-12-27T10:47:06.488Z,32.90
2018-12-27T10:49:34.819Z,32.87
2018-12-27T10:52:02.504Z,32.96
2018-12-27T10:54:29.799Z,33.49
2018-12-27T10:56:57.492Z,33.99
2018-12-27T10:59:25.108Z,33.09
2018-12-27T11:01:52.721Z,32.74
2018-12-27T11:04:19.750Z,32.71
2018-12-27T11:06:46.610Z,32.75
2018-12-27T11:09:14.252Z,32.99
2018-12-27T11:11:41.485Z,32.93
2018-12-27T11:14:08.771Z,32.89
2018-12-27T11:16:35.725Z,32.83
2018-12-27T11:19:04.248Z,32.72
2018-12-27T11:21:32.354Z,32.65
2018-12-27T11:23:59.709Z,32.86
2018-12-27T11:26:26.696Z,33.35
2018-12-27T11:28:53.820Z,32.77
2018-12-27T11:31:21.461Z,32.85
2018-12-27T11:33:48.800Z,33.23
2018-12-27T11:36:17.364Z,33.30
2018-12-27T11:38:44.755Z,33.49
2018-12-27T11:41:13.430Z,33.54
2018-12-27T11:43:40.831Z,33.59
2018-12-27T11:46:08.331Z,34.57
2018-12-27T11:48:36.365Z,34.57
2018-12-27T11:51:03.983Z,34.74
2018-12-27T11:53:31.486Z,34.86
2018-12-27T11:55:58.924Z,34.90
2018-12-27T11:58:26.758Z,34.82
2018-12-27T12:00:55.240Z,34.92
2018-12-27T12:03:22.597Z,35.10
2018-12-27T12:05:50.393Z,35.06
2018-12-27T12:08:18.423Z,35.17
2018-12-27T12:10:45.780Z,35.20
2018-12-27T12:13:13.597Z,35.02
2018-12-27T12:15:41.896Z,35.12
2018-12-27T12:18:09.445Z,35.51
2018-12-27T12:20:37.239Z,35.29
2018-12-27T12:23:04.603Z,34.86
2018-12-27T12:25:32.752Z,35.26
2018-12-27T12:27:59.840Z,35.34
2018-12-27T12:30:27.337Z,34.54
2018-12-27T12:32:54.969Z,34.54
2018-12-27T12:35:23.541Z,34.92
2018-12-27T12:37:50.866Z,34.63
2018-12-27T12:40:18.331Z,34.60
2018-12-27T12:42:46.247Z,34.60
2018-12-27T12:45:14.773Z,35.05
2018-12-27T12:47:42.474Z,34.81
2018-12-27T12:50:09.877Z,34.68
2018-12-27T12:52:39.243Z,35.21
2018-12-27T12:55:06.981Z,35.21
2018-12-27T12:57:34.334Z,35.21
2018-12-27T13:00:01.721Z,33.87
2018-12-27T13:02:29.596Z,33.85
2018-12-27T13:04:57.530Z,34.08
2018-12-27T13:07:25.428Z,34.04
2018-12-27T13:09:53.958Z,33.97
2018-12-27T13:12:21.411Z,34.00
2018-12-27T13:14:49.243Z,33.94
2018-12-27T13:17:16.789Z,33.99
2018-12-27T13:19:43.866Z,34.02
2018-12-27T13:22:11.338Z,34.71
2018-12-27T13:24:38.892Z,34.71
2018-12-27T13:27:06.552Z,35.00
2018-12-27T13:29:34.263Z,34.91
2018-12-27T13:32:02.491Z,35.17
2018-12-27T13:34:29.937Z,35.40
2018-12-27T13:36:57.906Z,35.28
2018-12-27T13:39:25.342Z,35.03
2018-12-27T13:41:52.706Z,35.22
2018-12-27T13:44:20.477Z,35.19
2018-12-27T13:46:47.778Z,35.09
2018-12-27T13:49:15.236Z,35.33
2018-12-27T13:53:14.335Z,35.42
2018-12-27T13:55:41.593Z,35.29
2018-12-27T13:58:09.327Z,35.02
2018-12-27T14:00:36.792Z,33.62
2018-12-27T14:03:03.795Z,33.49
2018-12-27T14:05:31.480Z,33.75
2018-12-27T14:07:59.331Z,34.16
2018-12-27T14:10:26.597Z,34.36
2018-12-27T14:12:53.974Z,34.82
2018-12-27T14:15:21.921Z,34.69
2018-12-27T14:17:49.608Z,34.67
2018-12-27T14:20:17.456Z,34.70
2018-12-27T14:26:16.824Z,34.11
2018-12-27T14:28:44.499Z,34.71
2018-12-27T14:31:11.923Z,34.71
2018-12-27T14:33:39.706Z,35.24
2018-12-27T14:36:06.599Z,35.07
2018-12-27T14:38:33.875Z,34.95
2018-12-27T14:41:01.394Z,34.90
2018-12-27T14:43:29.403Z,34.95
2018-12-27T14:45:56.870Z,34.94
2018-12-27T14:48:24.339Z,35.08
2018-12-27T14:50:52.240Z,35.08
2018-12-27T14:53:19.802Z,35.16
2018-12-27T14:55:48.457Z,35.22
2018-12-27T14:58:16.233Z,35.10
2018-12-27T15:00:43.784Z,35.09
2018-12-27T15:03:11.570Z,34.67
2018-12-27T15:05:38.888Z,34.92
2018-12-27T15:08:06.356Z,34.79
2018-12-27T15:10:33.646Z,34.91
2018-12-27T15:13:00.970Z,35.01
2018-12-27T15:15:28.293Z,35.13
2018-12-27T15:17:55.872Z,35.40
2018-12-27T15:20:23.262Z,35.33
2018-12-27T15:22:51.451Z,35.33
2018-12-27T15:25:19.013Z,35.34
2018-12-27T15:27:47.869Z,35.62
2018-12-27T15:30:15.481Z,35.44
2018-12-27T15:32:43.505Z,35.44
2018-12-27T15:35:10.699Z,35.39
2018-12-27T15:37:38.104Z,35.62
2018-12-27T15:40:05.746Z,35.66
2018-12-27T15:42:33.243Z,35.37
2018-12-27T15:45:00.971Z,35.38
2018-12-27T15:47:29.061Z,34.94
2018-12-27T15:49:56.892Z,34.84
2018-12-27T15:52:24.498Z,35.10
2018-12-27T15:54:51.827Z,34.74
2018-12-27T15:57:19.710Z,34.97
2018-12-27T15:59:47.707Z,35.87
2018-12-27T16:02:14.842Z,34.62
2018-12-27T16:04:42.880Z,34.99
2018-12-27T16:07:10.601Z,34.86
2018-12-27T16:09:38.337Z,34.86
2018-12-27T16:12:06.795Z,35.22
2018-12-27T16:14:36.003Z,35.25
2018-12-27T16:17:03.808Z,35.19
2018-12-27T16:19:31.678Z,35.29
2018-12-27T16:21:58.840Z,35.38
2018-12-27T16:24:26.801Z,35.84
2018-12-27T16:26:54.612Z,35.84
2018-12-27T16:29:21.887Z,35.55
2018-12-27T16:31:49.521Z,35.63
2018-12-27T16:34:16.840Z,35.57
2018-12-27T16:36:44.607Z,35.15
2018-12-27T16:39:12.440Z,35.15
2018-12-27T16:41:39.804Z,35.13
2018-12-27T16:44:07.344Z,35.38
2018-12-27T16:46:34.889Z,35.53
2018-12-27T16:49:03.386Z,35.70
2018-12-27T16:51:30.697Z,35.70
2018-12-27T16:53:58.021Z,35.80
2018-12-27T16:56:25.844Z,35.89
2018-12-27T16:58:53.750Z,35.89
2018-12-27T17:01:20.936Z,35.89
2018-12-27T17:03:48.915Z,35.94
2018-12-27T17:06:16.881Z,35.92
2018-12-27T17:08:46.330Z,35.74
2018-12-27T17:11:13.915Z,35.74
2018-12-27T17:13:41.620Z,35.64
2018-12-27T17:16:09.240Z,35.81
2018-12-27T17:18:36.781Z,35.37
2018-12-27T17:21:04.247Z,35.82
2018-12-27T17:23:31.519Z,35.19
2018-12-27T17:25:59.504Z,35.05
2018-12-27T17:28:27.239Z,35.25
2018-12-27T17:30:54.545Z,35.70
2018-12-27T17:33:22.474Z,35.76
2018-12-27T17:35:50.238Z,35.60
2018-12-27T17:38:17.599Z,35.76
2018-12-27T17:40:44.893Z,35.76
2018-12-27T17:43:13.439Z,35.75
2018-12-27T17:45:41.101Z,35.74
2018-12-27T17:48:09.109Z,35.99
2018-12-27T17:50:36.505Z,35.78
2018-12-27T17:53:04.113Z,35.99
2018-12-27T17:55:31.457Z,35.94
2018-12-27T17:57:58.927Z,35.66
2018-12-27T18:00:26.337Z,35.73
2018-12-27T18:02:53.797Z,35.92
2018-12-27T18:05:24.252Z,35.63
2018-12-27T18:07:51.733Z,35.30
2018-12-27T18:10:18.994Z,35.36
2018-12-27T18:12:46.800Z,35.50
2018-12-27T18:15:20.251Z,35.86
2018-12-27T18:17:47.488Z,35.84
2018-12-27T18:20:15.215Z,35.84
2018-12-27T18:22:42.608Z,36.09
2018-12-27T18:25:09.875Z,36.12
2018-12-27T18:27:37.504Z,36.04
2018-12-27T18:30:05.877Z,36.04
2018-12-27T18:32:33.452Z,36.16
2018-12-27T18:35:00.894Z,36.16
2018-12-27T18:37:28.399Z,36.07
2018-12-27T18:39:55.720Z,36.07
2018-12-27T18:42:23.453Z,35.99
2018-12-27T18:44:50.950Z,35.62
2018-12-27T18:47:18.320Z,35.51
2018-12-27T18:49:45.608Z,35.39
2018-12-27T18:52:13.727Z,35.62
2018-12-27T18:54:40.615Z,35.45
2018-12-27T18:57:08.255Z,35.75
2018-12-27T18:59:35.606Z,35.79
2018-12-27T19:02:03.248Z,35.87
2018-12-27T19:04:30.506Z,35.92
2018-12-27T19:06:58.360Z,35.97
2018-12-27T19:09:25.725Z,35.86
2018-12-27T19:12:54.062Z,36.03
2018-12-27T19:15:24.982Z,35.82
2018-12-27T19:18:13.457Z,35.36
2018-12-27T19:20:42.405Z,35.48
2018-12-27T19:23:17.757Z,36.03
2018-12-27T19:25:44.605Z,35.99
2018-12-27T19:28:12.241Z,36.00
2018-12-27T19:30:40.454Z,35.94
2018-12-27T19:33:08.267Z,35.94
2018-12-27T19:35:35.501Z,36.09
2018-12-27T19:38:03.402Z,36.16
2018-12-27T19:40:30.725Z,36.04
2018-12-27T19:42:57.900Z,35.91
2018-12-27T19:45:25.493Z,35.29
2018-12-27T19:47:53.245Z,35.29
2018-12-27T19:50:20.784Z,35.50
2018-12-27T19:52:47.744Z,35.69
2018-12-27T19:55:15.606Z,35.70
2018-12-27T19:57:43.437Z,35.36
2018-12-27T20:00:10.871Z,35.73
2018-12-27T20:02:38.455Z,35.67
2018-12-27T20:05:05.954Z,35.90
2018-12-27T20:07:33.615Z,35.86
2018-12-27T20:10:00.924Z,36.06
2018-12-27T20:12:28.335Z,35.99
2018-12-27T20:14:57.099Z,36.09
2018-12-27T20:17:24.779Z,36.12
2018-12-27T20:19:52.702Z,36.01
2018-12-27T20:22:19.606Z,36.52
2018-12-27T20:24:47.245Z,36.78
2018-12-27T20:27:14.746Z,36.38
2018-12-27T20:29:42.045Z,36.35
2018-12-27T20:32:10.243Z,36.42
2018-12-27T20:34:37.868Z,36.10
2018-12-27T20:37:05.310Z,35.91
2018-12-27T20:39:32.487Z,35.91
2018-12-27T20:41:59.796Z,35.81
2018-12-27T20:44:27.425Z,35.87
2018-12-27T20:46:55.008Z,37.23
2018-12-27T20:49:22.405Z,37.05
2018-12-27T20:53:50.790Z,37.31
2018-12-27T20:56:18.569Z,37.27
2018-12-27T20:58:46.388Z,37.13
2018-12-27T21:01:13.724Z,36.91
2018-12-27T21:03:41.427Z,36.61
2018-12-27T21:06:09.605Z,36.16
2018-12-27T21:08:36.895Z,36.12
2018-12-27T21:11:04.726Z,35.78
2018-12-27T21:13:31.733Z,35.78
2018-12-27T21:15:58.800Z,36.22
2018-12-27T21:18:26.378Z,36.76
2018-12-27T21:20:53.907Z,36.86
2018-12-27T21:23:21.846Z,37.01
2018-12-27T21:25:49.892Z,36.99
2018-12-27T21:30:58.713Z,36.97
2018-12-27T21:33:25.728Z,37.09
2018-12-27T21:35:52.914Z,37.44
2018-12-27T21:38:21.517Z,37.49
2018-12-27T21:40:49.468Z,36.87
2018-12-27T21:43:17.240Z,36.87
2018-12-27T21:45:44.607Z,36.66
2018-12-27T21:48:11.945Z,36.79
2018-12-27T21:50:39.386Z,36.85
2018-12-27T21:53:06.699Z,37.06
2018-12-27T21:55:33.599Z,37.64
2018-12-27T21:58:00.696Z,37.21
2018-12-27T22:00:29.993Z,37.02
2018-12-27T22:02:57.453Z,37.13
2018-12-27T22:05:24.798Z,37.30
2018-12-27T22:07:52.718Z,37.34
2018-12-27T22:10:19.884Z,37.34
2018-12-27T22:12:47.723Z,36.99
2018-12-27T22:15:14.707Z,36.99
2018-12-27T22:17:42.432Z,37.01
2018-12-27T22:20:10.239Z,37.27
2018-12-27T22:22:37.879Z,37.56
2018-12-27T22:25:05.513Z,37.18
2018-12-27T22:27:32.986Z,37.18
2018-12-27T22:30:00.622Z,36.25
2018-12-27T22:32:28.791Z,36.37
2018-12-27T22:34:56.932Z,36.42
2018-12-27T22:37:24.392Z,36.46
2018-12-27T22:39:52.106Z,36.12
2018-12-27T22:42:19.878Z,36.26
2018-12-27T22:44:47.411Z,36.10
2018-12-27T22:47:14.772Z,35.89
2018-12-27T22:49:45.611Z,36.20
2018-12-27T22:52:12.957Z,35.69
2018-12-27T22:54:40.993Z,35.04
2018-12-27T22:57:08.757Z,35.41
2018-12-27T22:59:35.878Z,35.25
2018-12-27T23:02:03.781Z,35.11
2018-12-27T23:04:31.472Z,35.75
2018-12-27T23:06:59.032Z,36.12
2018-12-27T23:09:27.430Z,36.22
2018-12-27T23:11:54.849Z,36.45
2018-12-27T23:14:22.807Z,36.51
2018-12-27T23:16:50.230Z,36.63
2018-12-27T23:19:17.991Z,36.94
2018-12-27T23:21:45.712Z,36.86
2018-12-27T23:24:13.098Z,36.95
2018-12-27T23:26:40.488Z,37.10
2018-12-27T23:29:07.943Z,36.81
2018-12-27T23:31:35.312Z,37.00
2018-12-27T23:34:03.015Z,36.62
2018-12-27T23:36:30.489Z,36.69
2018-12-27T23:38:58.328Z,36.46
2018-12-27T23:41:25.703Z,36.28
2018-12-27T23:43:52.604Z,36.28
2018-12-27T23:46:19.880Z,36.13
2018-12-27T23:48:47.597Z,36.69
2018-12-27T23:51:14.893Z,36.88
2018-12-27T23:53:42.240Z,36.79
2018-12-27T23:56:09.832Z,37.17
2018-12-27T23:58:37.793Z,37.31
